LGL885 ELLX-LGIR
Flight info
| Callsign | LGL885 |
|---|---|
| Flight time | N/A |
| Altitude | 35000 |
| Route | ASMOX Y891 ROPUV L607 UBIDU L984 BOMBI DCT DETEV DCT DINKU M867 XERUM DCT BAVAX DCT RADIZ DCT PINDO DCT PIKOS UL607 GIVIS T514 XAVIS |
| Aircraft | B738/M-SADFGILRWY/SB1 |
Departure
| Time | 2026-05-08 08:14 |
|---|---|
| Airport | Luxembourg-Findel International Airport (ELLX) |
Arrival
| Time | N/A |
|---|---|
| Airport | Heraklion International Nikos Kazantzakis Airport (LGIR) |
| Time | Latitude | Longitude | Altitude | Speed | Heading |
|---|---|---|---|---|---|
| 2026-05-08 07:26 | 49.63196 | 6.21641 | 1231 ft | 0 kts | 240° |
| 2026-05-08 08:10 | 49.63196 | 6.21639 | 1230 ft | 1 kts | 240° |
| 2026-05-08 08:10 | 49.63184 | 6.21608 | 1230 ft | 6 kts | 240° |
| 2026-05-08 08:10 | 49.63150 | 6.21603 | 1230 ft | 7 kts | 153° |
| 2026-05-08 08:11 | 49.63089 | 6.21642 | 1229 ft | 9 kts | 195° |
| 2026-05-08 08:11 | 49.63053 | 6.21560 | 1230 ft | 11 kts | 246° |
| 2026-05-08 08:11 | 49.63013 | 6.21432 | 1233 ft | 16 kts | 244° |
| 2026-05-08 08:11 | 49.62954 | 6.21241 | 1235 ft | 23 kts | 244° |
| 2026-05-08 08:12 | 49.62874 | 6.20988 | 1237 ft | 28 kts | 244° |
| 2026-05-08 08:12 | 49.62783 | 6.20728 | 1237 ft | 26 kts | 227° |
| 2026-05-08 08:12 | 49.62651 | 6.20552 | 1234 ft | 22 kts | 227° |
| 2026-05-08 08:12 | 49.62559 | 6.20459 | 1231 ft | 9 kts | 143° |
| 2026-05-08 08:13 | 49.62506 | 6.20501 | 1231 ft | 8 kts | 153° |
| 2026-05-08 08:13 | 49.62455 | 6.20540 | 1231 ft | 8 kts | 162° |
| 2026-05-08 08:13 | 49.62435 | 6.20586 | 1231 ft | 6 kts | 60° |
| 2026-05-08 08:13 | 49.62495 | 6.20752 | 1234 ft | 44 kts | 62° |
| 2026-05-08 08:14 | 49.62770 | 6.21497 | 1231 ft | 112 kts | 60° |
| 2026-05-08 08:14 | 49.63254 | 6.22792 | 1226 ft | 165 kts | 60° |
| 2026-05-08 08:14 | 49.63841 | 6.24330 | 1808 ft | 169 kts | 61° |
| 2026-05-08 08:14 | 49.64441 | 6.25923 | 2458 ft | 171 kts | 61° |
| 2026-05-08 08:15 | 49.65025 | 6.27452 | 3090 ft | 168 kts | 60° |
| 2026-05-08 08:15 | 49.65621 | 6.28995 | 3607 ft | 171 kts | 61° |
| 2026-05-08 08:15 | 49.66185 | 6.30601 | 4135 ft | 173 kts | 63° |
| 2026-05-08 08:15 | 49.66765 | 6.32239 | 4605 ft | 179 kts | 62° |
| 2026-05-08 08:16 | 49.67408 | 6.33987 | 4897 ft | 197 kts | 61° |
| 2026-05-08 08:16 | 49.68106 | 6.35869 | 5290 ft | 211 kts | 61° |
| 2026-05-08 08:16 | 49.69076 | 6.37717 | 5584 ft | 232 kts | 33° |
| 2026-05-08 08:16 | 49.70619 | 6.38476 | 5998 ft | 248 kts | 360° |
| 2026-05-08 08:17 | 49.72359 | 6.37923 | 6421 ft | 263 kts | 340° |
| 2026-05-08 08:17 | 49.74106 | 6.36863 | 6877 ft | 275 kts | 338° |
| 2026-05-08 08:17 | 49.75892 | 6.35753 | 7538 ft | 280 kts | 338° |
| 2026-05-08 08:17 | 49.77702 | 6.34685 | 8270 ft | 281 kts | 339° |
| 2026-05-08 08:18 | 49.79513 | 6.33655 | 8946 ft | 284 kts | 339° |
| 2026-05-08 08:18 | 49.81383 | 6.32610 | 9634 ft | 287 kts | 338° |
| 2026-05-08 08:18 | 49.83263 | 6.31563 | 10304 ft | 290 kts | 338° |
| 2026-05-08 08:18 | 49.85183 | 6.30490 | 10678 ft | 304 kts | 338° |
| 2026-05-08 08:19 | 49.87208 | 6.29361 | 11030 ft | 319 kts | 339° |
| 2026-05-08 08:19 | 49.89409 | 6.28497 | 11322 ft | 337 kts | 351° |
| 2026-05-08 08:19 | 49.91816 | 6.28695 | 11621 ft | 356 kts | 13° |
| 2026-05-08 08:19 | 49.94146 | 6.30079 | 12155 ft | 365 kts | 23° |
| 2026-05-08 08:20 | 49.96456 | 6.31775 | 12775 ft | 371 kts | 24° |
| 2026-05-08 08:20 | 49.98791 | 6.33529 | 13463 ft | 374 kts | 24° |
| 2026-05-08 08:20 | 50.01129 | 6.35271 | 14138 ft | 378 kts | 24° |
| 2026-05-08 08:20 | 50.03391 | 6.37391 | 14779 ft | 384 kts | 39° |
| 2026-05-08 08:21 | 50.05055 | 6.40553 | 15455 ft | 388 kts | 60° |
| 2026-05-08 08:21 | 50.05946 | 6.44509 | 16096 ft | 392 kts | 80° |
| 2026-05-08 08:21 | 50.06119 | 6.48757 | 16747 ft | 395 kts | 89° |
| 2026-05-08 08:21 | 50.06145 | 6.53027 | 17340 ft | 400 kts | 90° |
| 2026-05-08 08:22 | 50.06176 | 6.57346 | 17966 ft | 404 kts | 89° |
| 2026-05-08 08:22 | 50.06220 | 6.61745 | 18602 ft | 407 kts | 89° |
| 2026-05-08 08:22 | 50.06274 | 6.66158 | 19256 ft | 410 kts | 90° |
| 2026-05-08 08:22 | 50.06332 | 6.70557 | 19831 ft | 415 kts | 89° |
| 2026-05-08 08:23 | 50.06393 | 6.75069 | 20453 ft | 418 kts | 89° |
| 2026-05-08 08:23 | 50.06453 | 6.79573 | 21043 ft | 421 kts | 89° |
| 2026-05-08 08:23 | 50.06511 | 6.84096 | 21616 ft | 424 kts | 90° |
| 2026-05-08 08:23 | 50.06568 | 6.88716 | 22193 ft | 428 kts | 90° |
| 2026-05-08 08:24 | 50.06623 | 6.93354 | 22746 ft | 431 kts | 90° |
| 2026-05-08 08:24 | 50.06674 | 6.97996 | 23277 ft | 434 kts | 90° |
| 2026-05-08 08:24 | 50.06724 | 7.02705 | 23822 ft | 437 kts | 90° |
| 2026-05-08 08:24 | 50.06773 | 7.07416 | 24303 ft | 441 kts | 90° |
| 2026-05-08 08:25 | 50.06821 | 7.12227 | 24771 ft | 444 kts | 90° |
| 2026-05-08 08:25 | 50.06866 | 7.16982 | 25262 ft | 447 kts | 90° |
| 2026-05-08 08:25 | 50.06910 | 7.21804 | 25689 ft | 451 kts | 90° |
| 2026-05-08 08:25 | 50.06953 | 7.26679 | 26148 ft | 454 kts | 90° |
| 2026-05-08 08:26 | 50.06995 | 7.31644 | 26615 ft | 457 kts | 90° |
| 2026-05-08 08:26 | 50.07035 | 7.36562 | 27077 ft | 459 kts | 90° |
| 2026-05-08 08:26 | 50.07073 | 7.41539 | 27496 ft | 462 kts | 90° |
| 2026-05-08 08:26 | 50.07109 | 7.46511 | 27912 ft | 465 kts | 90° |
| 2026-05-08 08:27 | 50.07143 | 7.51535 | 28356 ft | 467 kts | 90° |
| 2026-05-08 08:27 | 50.07175 | 7.56569 | 28757 ft | 469 kts | 90° |
| 2026-05-08 08:27 | 50.07205 | 7.61600 | 29440 ft | 465 kts | 90° |
| 2026-05-08 08:27 | 50.07233 | 7.66643 | 29985 ft | 464 kts | 90° |
| 2026-05-08 08:28 | 50.07259 | 7.71666 | 30452 ft | 464 kts | 90° |
| 2026-05-08 08:28 | 50.07283 | 7.76648 | 30914 ft | 463 kts | 90° |
| 2026-05-08 08:28 | 50.07304 | 7.81693 | 31314 ft | 464 kts | 90° |
| 2026-05-08 08:28 | 50.07267 | 7.86781 | 31704 ft | 463 kts | 93° |
| 2026-05-08 08:29 | 50.07032 | 7.91787 | 32089 ft | 462 kts | 98° |
| 2026-05-08 08:29 | 50.06551 | 7.96655 | 32475 ft | 461 kts | 102° |
| 2026-05-08 08:29 | 50.05908 | 8.01522 | 32830 ft | 460 kts | 104° |
| 2026-05-08 08:29 | 50.05226 | 8.06393 | 33179 ft | 460 kts | 102° |
| 2026-05-08 08:30 | 50.04749 | 8.11293 | 33485 ft | 462 kts | 96° |
| 2026-05-08 08:30 | 50.04567 | 8.16244 | 33808 ft | 462 kts | 92° |
| 2026-05-08 08:30 | 50.04630 | 8.26283 | 34434 ft | 463 kts | 89° |
| 2026-05-08 08:31 | 50.04740 | 8.31246 | 34735 ft | 462 kts | 88° |
| 2026-05-08 08:31 | 50.04861 | 8.36245 | 34964 ft | 462 kts | 88° |
| 2026-05-08 08:31 | 50.04980 | 8.41216 | 35093 ft | 464 kts | 88° |
| 2026-05-08 08:31 | 50.05093 | 8.46229 | 35112 ft | 465 kts | 88° |
| 2026-05-08 08:32 | 50.04654 | 8.56114 | 35130 ft | 459 kts | 105° |
| 2026-05-08 08:32 | 50.03760 | 8.60829 | 35277 ft | 460 kts | 110° |
| 2026-05-08 08:32 | 50.02693 | 8.65512 | 35505 ft | 458 kts | 112° |
| 2026-05-08 08:33 | 50.01585 | 8.70092 | 35664 ft | 458 kts | 112° |
| 2026-05-08 08:33 | 50.00450 | 8.74756 | 35817 ft | 459 kts | 112° |
| 2026-05-08 08:33 | 49.99338 | 8.79374 | 35958 ft | 459 kts | 112° |
| 2026-05-08 08:33 | 49.98240 | 8.84010 | 36107 ft | 459 kts | 112° |
| 2026-05-08 08:34 | 49.97162 | 8.88636 | 36321 ft | 459 kts | 111° |
| 2026-05-08 08:34 | 49.96085 | 8.93323 | 36535 ft | 459 kts | 111° |
| 2026-05-08 08:34 | 49.95028 | 8.97970 | 36755 ft | 459 kts | 111° |
| 2026-05-08 08:34 | 49.93979 | 9.02618 | 36957 ft | 460 kts | 111° |
| 2026-05-08 08:35 | 49.92923 | 9.07312 | 37102 ft | 461 kts | 111° |
| 2026-05-08 08:35 | 49.91865 | 9.12027 | 37105 ft | 462 kts | 111° |
| 2026-05-08 08:35 | 49.89775 | 9.21348 | 37106 ft | 459 kts | 111° |
| 2026-05-08 08:36 | 49.87667 | 9.30721 | 37108 ft | 461 kts | 111° |
| 2026-05-08 08:36 | 49.85560 | 9.40055 | 37100 ft | 461 kts | 111° |
| 2026-05-08 08:37 | 49.83369 | 9.49334 | 37099 ft | 460 kts | 115° |
| 2026-05-08 08:37 | 49.80055 | 9.57620 | 37106 ft | 453 kts | 134° |
| 2026-05-08 08:38 | 49.75590 | 9.64551 | 37098 ft | 451 kts | 139° |
| 2026-05-08 08:38 | 49.70964 | 9.71088 | 37097 ft | 450 kts | 141° |
| 2026-05-08 08:39 | 49.66339 | 9.77583 | 37098 ft | 450 kts | 140° |
| 2026-05-08 08:39 | 49.61719 | 9.84127 | 37098 ft | 450 kts | 140° |
| 2026-05-08 08:40 | 49.57132 | 9.90666 | 37100 ft | 451 kts | 140° |
| 2026-05-08 08:40 | 49.52543 | 9.97221 | 37098 ft | 451 kts | 140° |
| 2026-05-08 08:41 | 49.47958 | 10.03767 | 37096 ft | 450 kts | 140° |
| 2026-05-08 08:41 | 49.43362 | 10.10316 | 37095 ft | 449 kts | 140° |
| 2026-05-08 08:42 | 49.38793 | 10.16812 | 37093 ft | 449 kts | 140° |
| 2026-05-08 08:42 | 49.34230 | 10.23281 | 37096 ft | 449 kts | 140° |
| 2026-05-08 08:43 | 49.29642 | 10.29767 | 37090 ft | 449 kts | 140° |
| 2026-05-08 08:43 | 49.25026 | 10.36206 | 37089 ft | 448 kts | 142° |
| 2026-05-08 08:44 | 49.20067 | 10.41812 | 37088 ft | 445 kts | 150° |
| 2026-05-08 08:44 | 49.14789 | 10.46678 | 37088 ft | 443 kts | 152° |
| 2026-05-08 08:45 | 49.09495 | 10.51353 | 37081 ft | 442 kts | 153° |
| 2026-05-08 08:45 | 49.04170 | 10.56073 | 37079 ft | 442 kts | 152° |
| 2026-05-08 08:46 | 48.98879 | 10.60801 | 37075 ft | 442 kts | 152° |
| 2026-05-08 08:46 | 48.93570 | 10.65565 | 37077 ft | 442 kts | 153° |
| 2026-05-08 08:47 | 48.88276 | 10.70323 | 37076 ft | 441 kts | 153° |
| 2026-05-08 08:47 | 48.83064 | 10.75193 | 37076 ft | 443 kts | 148° |
| 2026-05-08 08:48 | 48.78361 | 10.81232 | 37083 ft | 448 kts | 138° |
| 2026-05-08 08:48 | 48.74094 | 10.88119 | 37084 ft | 451 kts | 135° |
| 2026-05-08 08:49 | 48.69943 | 10.95212 | 37088 ft | 450 kts | 134° |
| 2026-05-08 08:49 | 48.65787 | 11.02299 | 37086 ft | 451 kts | 135° |
| 2026-05-08 08:50 | 48.61612 | 11.09336 | 37088 ft | 450 kts | 135° |
| 2026-05-08 08:50 | 48.57438 | 11.16303 | 37085 ft | 450 kts | 135° |
| 2026-05-08 08:51 | 48.53239 | 11.23274 | 37083 ft | 450 kts | 135° |
| 2026-05-08 08:51 | 48.49015 | 11.30257 | 37079 ft | 451 kts | 136° |
| 2026-05-08 08:52 | 48.44810 | 11.37186 | 37075 ft | 451 kts | 136° |
| 2026-05-08 08:52 | 48.40554 | 11.44181 | 37078 ft | 452 kts | 136° |
| 2026-05-08 08:53 | 48.36319 | 11.51123 | 37074 ft | 453 kts | 136° |
| 2026-05-08 08:53 | 48.32079 | 11.58055 | 37074 ft | 453 kts | 136° |
| 2026-05-08 08:54 | 48.27835 | 11.64977 | 37079 ft | 452 kts | 136° |
| 2026-05-08 08:54 | 48.23519 | 11.71721 | 37075 ft | 449 kts | 140° |
| 2026-05-08 08:55 | 48.18916 | 11.78055 | 37073 ft | 447 kts | 142° |
| 2026-05-08 08:55 | 48.14276 | 11.84252 | 37070 ft | 448 kts | 142° |
| 2026-05-08 08:56 | 48.09671 | 11.90433 | 37063 ft | 448 kts | 142° |
| 2026-05-08 08:56 | 48.05021 | 11.96717 | 37063 ft | 450 kts | 142° |
| 2026-05-08 08:57 | 48.00371 | 12.03021 | 37064 ft | 451 kts | 142° |
| 2026-05-08 08:57 | 47.95750 | 12.09288 | 37060 ft | 451 kts | 142° |
| 2026-05-08 08:58 | 47.91133 | 12.15543 | 37062 ft | 450 kts | 142° |
| 2026-05-08 08:58 | 47.86508 | 12.21796 | 37064 ft | 449 kts | 142° |
| 2026-05-08 08:59 | 47.81879 | 12.28040 | 37061 ft | 448 kts | 142° |
| 2026-05-08 08:59 | 47.77280 | 12.34223 | 37072 ft | 449 kts | 142° |
| 2026-05-08 09:00 | 47.72661 | 12.40417 | 37072 ft | 450 kts | 142° |
| 2026-05-08 09:00 | 47.68029 | 12.46618 | 37079 ft | 449 kts | 142° |
| 2026-05-08 09:01 | 47.63387 | 12.52816 | 37091 ft | 449 kts | 142° |
| 2026-05-08 09:01 | 47.58786 | 12.59059 | 37084 ft | 452 kts | 141° |
| 2026-05-08 09:02 | 47.54216 | 12.65441 | 37094 ft | 451 kts | 142° |
| 2026-05-08 09:02 | 47.49699 | 12.71764 | 37091 ft | 448 kts | 142° |
| 2026-05-08 09:03 | 47.45166 | 12.78074 | 37106 ft | 450 kts | 142° |
| 2026-05-08 09:03 | 47.40621 | 12.84369 | 37111 ft | 449 kts | 142° |
| 2026-05-08 09:04 | 47.36066 | 12.90652 | 37110 ft | 449 kts | 142° |
| 2026-05-08 09:04 | 47.31492 | 12.96944 | 37121 ft | 449 kts | 142° |
| 2026-05-08 09:05 | 47.26928 | 13.03200 | 37113 ft | 449 kts | 142° |
| 2026-05-08 09:05 | 47.22352 | 13.09460 | 37109 ft | 448 kts | 142° |
| 2026-05-08 09:06 | 47.17818 | 13.15647 | 37090 ft | 449 kts | 142° |
| 2026-05-08 09:06 | 47.13238 | 13.21883 | 37079 ft | 448 kts | 142° |
| 2026-05-08 09:07 | 47.08698 | 13.28050 | 37067 ft | 448 kts | 142° |
| 2026-05-08 09:07 | 47.04129 | 13.34239 | 37051 ft | 446 kts | 142° |
| 2026-05-08 09:08 | 46.99581 | 13.40382 | 37049 ft | 447 kts | 142° |
| 2026-05-08 09:08 | 46.95021 | 13.46532 | 37053 ft | 446 kts | 142° |
| 2026-05-08 09:09 | 46.90458 | 13.52669 | 37054 ft | 447 kts | 142° |
| 2026-05-08 09:09 | 46.85864 | 13.58832 | 37062 ft | 446 kts | 142° |
| 2026-05-08 09:10 | 46.81280 | 13.64966 | 37078 ft | 448 kts | 142° |
| 2026-05-08 09:10 | 46.76674 | 13.71113 | 37090 ft | 448 kts | 143° |
| 2026-05-08 09:11 | 46.72096 | 13.77213 | 37093 ft | 446 kts | 143° |
| 2026-05-08 09:11 | 46.67511 | 13.83307 | 37089 ft | 445 kts | 143° |
| 2026-05-08 09:12 | 46.62944 | 13.89358 | 37086 ft | 446 kts | 143° |
| 2026-05-08 09:12 | 46.58349 | 13.95434 | 37085 ft | 446 kts | 143° |
| 2026-05-08 09:13 | 46.53739 | 14.01514 | 37083 ft | 446 kts | 143° |
| 2026-05-08 09:13 | 46.49161 | 14.07537 | 37091 ft | 446 kts | 143° |
| 2026-05-08 09:14 | 46.44557 | 14.13581 | 37082 ft | 446 kts | 143° |
| 2026-05-08 09:14 | 46.39942 | 14.19623 | 37085 ft | 447 kts | 143° |
| 2026-05-08 09:15 | 46.35338 | 14.25636 | 37089 ft | 447 kts | 143° |
| 2026-05-08 09:15 | 46.30735 | 14.31635 | 37081 ft | 447 kts | 143° |
| 2026-05-08 09:16 | 46.26106 | 14.37655 | 37080 ft | 447 kts | 143° |
| 2026-05-08 09:16 | 46.21515 | 14.43613 | 37077 ft | 448 kts | 143° |
| 2026-05-08 09:17 | 46.16877 | 14.49615 | 37075 ft | 446 kts | 143° |
| 2026-05-08 09:17 | 46.12243 | 14.55599 | 37084 ft | 447 kts | 143° |
| 2026-05-08 09:18 | 46.07625 | 14.61546 | 37087 ft | 446 kts | 143° |
| 2026-05-08 09:18 | 46.02999 | 14.67491 | 37090 ft | 447 kts | 143° |
| 2026-05-08 09:19 | 45.98353 | 14.73447 | 37086 ft | 446 kts | 143° |
| 2026-05-08 09:19 | 45.93754 | 14.79327 | 37082 ft | 446 kts | 143° |
| 2026-05-08 09:20 | 45.89103 | 14.85260 | 37080 ft | 447 kts | 143° |
| 2026-05-08 09:20 | 45.84463 | 14.91168 | 37086 ft | 446 kts | 143° |
| 2026-05-08 09:21 | 45.79822 | 14.97061 | 37083 ft | 447 kts | 143° |
| 2026-05-08 09:23 | 45.63597 | 15.17563 | 37081 ft | 445 kts | 143° |
| 2026-05-08 09:23 | 45.58982 | 15.23364 | 37076 ft | 444 kts | 143° |
| 2026-05-08 09:24 | 45.54364 | 15.29155 | 37102 ft | 446 kts | 143° |
| 2026-05-08 09:24 | 45.52038 | 15.32065 | 37253 ft | 448 kts | 143° |
| 2026-05-08 09:24 | 45.49687 | 15.35004 | 37582 ft | 445 kts | 143° |
| 2026-05-08 09:24 | 45.47387 | 15.37878 | 37797 ft | 446 kts | 143° |
| 2026-05-08 09:25 | 45.45065 | 15.40774 | 38017 ft | 446 kts | 143° |
| 2026-05-08 09:25 | 45.42742 | 15.43668 | 38225 ft | 446 kts | 143° |
| 2026-05-08 09:25 | 45.40405 | 15.46577 | 38442 ft | 446 kts | 143° |
| 2026-05-08 09:25 | 45.38069 | 15.49481 | 38594 ft | 447 kts | 143° |
| 2026-05-08 09:26 | 45.35752 | 15.52358 | 38794 ft | 446 kts | 143° |
| 2026-05-08 09:26 | 45.33405 | 15.55272 | 39037 ft | 445 kts | 143° |
| 2026-05-08 09:26 | 45.31073 | 15.58162 | 39081 ft | 447 kts | 143° |
| 2026-05-08 09:27 | 45.26397 | 15.63946 | 39081 ft | 445 kts | 143° |
| 2026-05-08 09:27 | 45.21768 | 15.69662 | 39084 ft | 443 kts | 144° |
| 2026-05-08 09:28 | 45.17128 | 15.75376 | 39076 ft | 444 kts | 144° |
| 2026-05-08 09:28 | 45.12483 | 15.81082 | 39080 ft | 444 kts | 144° |
| 2026-05-08 09:29 | 45.07830 | 15.86782 | 39076 ft | 444 kts | 144° |
| 2026-05-08 09:29 | 45.03169 | 15.92486 | 39081 ft | 443 kts | 144° |
| 2026-05-08 09:30 | 44.98531 | 15.98146 | 39089 ft | 443 kts | 144° |
| 2026-05-08 09:30 | 44.93866 | 16.03826 | 39085 ft | 443 kts | 144° |
| 2026-05-08 09:31 | 44.89212 | 16.09481 | 39072 ft | 443 kts | 144° |
| 2026-05-08 09:31 | 44.84569 | 16.15109 | 39071 ft | 443 kts | 144° |
| 2026-05-08 09:32 | 44.79887 | 16.20770 | 39065 ft | 444 kts | 144° |
| 2026-05-08 09:32 | 44.75240 | 16.26379 | 39064 ft | 442 kts | 144° |
| 2026-05-08 09:33 | 44.70560 | 16.32016 | 39064 ft | 442 kts | 144° |
| 2026-05-08 09:33 | 44.65929 | 16.37580 | 39064 ft | 441 kts | 144° |
| 2026-05-08 09:34 | 44.61247 | 16.43191 | 39061 ft | 441 kts | 144° |
| 2026-05-08 09:34 | 44.56614 | 16.48735 | 39064 ft | 440 kts | 143° |
| 2026-05-08 09:35 | 44.51987 | 16.54259 | 39063 ft | 440 kts | 144° |
| 2026-05-08 09:35 | 44.47334 | 16.59803 | 39067 ft | 440 kts | 144° |
| 2026-05-08 09:36 | 44.42677 | 16.65337 | 39068 ft | 440 kts | 144° |
| 2026-05-08 09:36 | 44.38019 | 16.70862 | 39068 ft | 439 kts | 144° |
| 2026-05-08 09:37 | 44.33372 | 16.76363 | 39069 ft | 439 kts | 144° |
| 2026-05-08 09:37 | 44.28749 | 16.81821 | 39081 ft | 439 kts | 144° |
| 2026-05-08 09:38 | 44.24089 | 16.87312 | 39076 ft | 438 kts | 144° |
| 2026-05-08 09:38 | 44.19456 | 16.92761 | 39080 ft | 437 kts | 145° |
| 2026-05-08 09:39 | 44.14827 | 16.98188 | 39078 ft | 438 kts | 144° |
| 2026-05-08 09:39 | 44.10168 | 17.03641 | 39083 ft | 438 kts | 144° |
| 2026-05-08 09:40 | 44.05514 | 17.09077 | 39087 ft | 438 kts | 144° |
| 2026-05-08 09:40 | 44.00862 | 17.14502 | 39084 ft | 437 kts | 144° |
| 2026-05-08 09:41 | 43.96205 | 17.19919 | 39084 ft | 438 kts | 144° |
| 2026-05-08 09:41 | 43.91565 | 17.25306 | 39076 ft | 436 kts | 144° |
| 2026-05-08 09:42 | 43.86930 | 17.30674 | 39077 ft | 437 kts | 144° |
| 2026-05-08 09:42 | 43.82250 | 17.36083 | 39066 ft | 437 kts | 144° |
| 2026-05-08 09:43 | 43.77591 | 17.41456 | 39065 ft | 437 kts | 144° |
| 2026-05-08 09:43 | 43.72945 | 17.46806 | 39070 ft | 437 kts | 144° |
| 2026-05-08 09:44 | 43.68284 | 17.52160 | 39065 ft | 438 kts | 144° |
| 2026-05-08 09:44 | 43.63609 | 17.57519 | 39058 ft | 438 kts | 144° |
| 2026-05-08 09:45 | 43.58940 | 17.62861 | 39057 ft | 437 kts | 144° |
| 2026-05-08 09:45 | 43.54259 | 17.68205 | 39050 ft | 437 kts | 145° |
| 2026-05-08 09:46 | 43.49578 | 17.73536 | 39047 ft | 437 kts | 145° |
| 2026-05-08 09:46 | 43.44895 | 17.78859 | 39033 ft | 437 kts | 145° |
| 2026-05-08 09:47 | 43.40191 | 17.84193 | 39043 ft | 437 kts | 145° |
| 2026-05-08 09:47 | 43.35515 | 17.89487 | 39033 ft | 437 kts | 144° |
| 2026-05-08 09:48 | 43.30810 | 17.94801 | 39029 ft | 437 kts | 144° |
| 2026-05-08 09:48 | 43.26145 | 18.00061 | 39039 ft | 436 kts | 144° |
| 2026-05-08 09:49 | 43.21430 | 18.05366 | 39037 ft | 436 kts | 144° |
| 2026-05-08 09:49 | 43.16746 | 18.10625 | 39040 ft | 436 kts | 144° |
| 2026-05-08 09:50 | 43.12060 | 18.15872 | 39037 ft | 437 kts | 144° |
| 2026-05-08 09:50 | 43.07360 | 18.21126 | 39042 ft | 437 kts | 144° |
| 2026-05-08 09:51 | 43.02664 | 18.26368 | 39046 ft | 436 kts | 144° |
| 2026-05-08 09:51 | 42.97980 | 18.31584 | 39059 ft | 436 kts | 144° |
| 2026-05-08 09:52 | 42.93270 | 18.36816 | 39059 ft | 436 kts | 144° |
| 2026-05-08 09:52 | 42.88577 | 18.42021 | 39060 ft | 436 kts | 144° |
| 2026-05-08 09:53 | 42.83892 | 18.47208 | 39051 ft | 435 kts | 144° |
| 2026-05-08 09:53 | 42.79182 | 18.52411 | 39051 ft | 437 kts | 145° |
| 2026-05-08 09:54 | 42.74498 | 18.57576 | 39045 ft | 435 kts | 145° |
| 2026-05-08 09:54 | 42.69797 | 18.62747 | 39046 ft | 437 kts | 144° |
| 2026-05-08 09:55 | 42.65084 | 18.67921 | 39046 ft | 436 kts | 146° |
| 2026-05-08 09:55 | 42.60375 | 18.73082 | 39038 ft | 436 kts | 145° |
| 2026-05-08 09:56 | 42.55662 | 18.78236 | 39035 ft | 436 kts | 145° |
| 2026-05-08 09:56 | 42.50950 | 18.83376 | 39032 ft | 436 kts | 145° |
| 2026-05-08 09:57 | 42.43865 | 18.91088 | 39032 ft | 436 kts | 145° |
| 2026-05-08 09:57 | 42.39153 | 18.96203 | 39024 ft | 436 kts | 145° |
| 2026-05-08 09:58 | 42.34424 | 19.01327 | 39025 ft | 437 kts | 146° |
| 2026-05-08 09:58 | 42.29691 | 19.06449 | 39025 ft | 437 kts | 146° |
| 2026-05-08 09:59 | 42.24961 | 19.11553 | 39019 ft | 437 kts | 145° |
| 2026-05-08 09:59 | 42.20216 | 19.16663 | 39004 ft | 438 kts | 146° |
| 2026-05-08 10:00 | 42.15439 | 19.21798 | 39008 ft | 438 kts | 145° |
| 2026-05-08 10:00 | 42.10680 | 19.26903 | 39002 ft | 438 kts | 146° |
| 2026-05-08 10:01 | 42.05920 | 19.31999 | 39007 ft | 440 kts | 145° |
| 2026-05-08 10:01 | 42.01148 | 19.37098 | 39000 ft | 439 kts | 145° |
| 2026-05-08 10:02 | 41.96381 | 19.42182 | 38995 ft | 439 kts | 146° |
| 2026-05-08 10:02 | 41.91610 | 19.47265 | 38995 ft | 438 kts | 146° |
| 2026-05-08 10:03 | 41.86830 | 19.52342 | 38988 ft | 440 kts | 146° |
| 2026-05-08 10:03 | 41.82005 | 19.57454 | 38993 ft | 442 kts | 146° |
| 2026-05-08 10:04 | 41.77217 | 19.62520 | 38998 ft | 441 kts | 146° |
| 2026-05-08 10:04 | 41.72406 | 19.67604 | 39017 ft | 440 kts | 147° |
| 2026-05-08 10:05 | 41.67607 | 19.72663 | 39021 ft | 441 kts | 146° |
| 2026-05-08 10:05 | 41.62808 | 19.77710 | 39009 ft | 441 kts | 147° |
| 2026-05-08 10:06 | 41.57983 | 19.82775 | 39007 ft | 442 kts | 147° |
| 2026-05-08 10:06 | 41.53153 | 19.87835 | 39034 ft | 443 kts | 147° |
| 2026-05-08 10:07 | 41.48315 | 19.92894 | 39022 ft | 443 kts | 147° |
| 2026-05-08 10:07 | 41.43460 | 19.97963 | 39031 ft | 444 kts | 147° |
| 2026-05-08 10:08 | 41.38613 | 20.03016 | 39029 ft | 443 kts | 147° |
| 2026-05-08 10:08 | 41.33768 | 20.08053 | 39031 ft | 444 kts | 147° |
| 2026-05-08 10:09 | 41.28916 | 20.13084 | 39028 ft | 443 kts | 147° |
| 2026-05-08 10:09 | 41.24029 | 20.18143 | 39021 ft | 446 kts | 147° |
| 2026-05-08 10:10 | 41.19128 | 20.23207 | 39040 ft | 447 kts | 147° |
| 2026-05-08 10:10 | 41.14261 | 20.28229 | 39045 ft | 447 kts | 147° |
| 2026-05-08 10:11 | 41.09337 | 20.33299 | 39041 ft | 448 kts | 147° |
| 2026-05-08 10:11 | 41.04435 | 20.38338 | 39049 ft | 447 kts | 147° |
| 2026-05-08 10:12 | 40.99524 | 20.43374 | 39045 ft | 450 kts | 148° |
| 2026-05-08 10:12 | 40.94581 | 20.48432 | 39059 ft | 449 kts | 147° |
| 2026-05-08 10:13 | 40.89640 | 20.53481 | 39061 ft | 451 kts | 147° |
| 2026-05-08 10:13 | 40.84681 | 20.58539 | 39052 ft | 451 kts | 147° |
| 2026-05-08 10:14 | 40.79724 | 20.63584 | 39052 ft | 449 kts | 148° |
| 2026-05-08 10:14 | 40.74808 | 20.68577 | 39053 ft | 449 kts | 148° |
| 2026-05-08 10:15 | 40.69840 | 20.73609 | 39062 ft | 452 kts | 148° |
| 2026-05-08 10:15 | 40.64857 | 20.78651 | 39061 ft | 451 kts | 148° |
| 2026-05-08 10:16 | 40.59901 | 20.83655 | 39071 ft | 451 kts | 148° |
| 2026-05-08 10:16 | 40.54944 | 20.88650 | 39072 ft | 452 kts | 148° |
| 2026-05-08 10:17 | 40.49932 | 20.93691 | 39073 ft | 453 kts | 148° |